sensor_id;sensor_type;location;lat;lon;timestamp;P1;durP1;ratioP1;P2;durP2;ratioP2
52620;SDS011;38515;53.160;6.990;2023-06-14T00:02:06;84.75;;;81.25;;
52620;SDS011;38515;53.160;6.990;2023-06-14T00:04:34;88.47;;;85.07;;
52620;SDS011;38515;53.160;6.990;2023-06-14T00:07:00;79.22;;;76.18;;
52620;SDS011;38515;53.160;6.990;2023-06-14T00:09:26;79.80;;;76.68;;
52620;SDS011;38515;53.160;6.990;2023-06-14T00:11:52;59.72;;;57.42;;
52620;SDS011;38515;53.160;6.990;2023-06-14T00:14:18;46.45;;;44.47;;
52620;SDS011;38515;53.160;6.990;2023-06-14T00:16:44;37.55;;;35.80;;
52620;SDS011;38515;53.160;6.990;2023-06-14T00:19:09;34.65;;;33.05;;
52620;SDS011;38515;53.160;6.990;2023-06-14T00:21:36;41.75;;;39.72;;
52620;SDS011;38515;53.160;6.990;2023-06-14T00:24:03;56.33;;;53.92;;
52620;SDS011;38515;53.160;6.990;2023-06-14T00:26:29;44.80;;;43.03;;
52620;SDS011;38515;53.160;6.990;2023-06-14T00:28:55;31.92;;;30.45;;
52620;SDS011;38515;53.160;6.990;2023-06-14T00:31:22;38.42;;;36.63;;
52620;SDS011;38515;53.160;6.990;2023-06-14T00:33:48;41.05;;;38.85;;
52620;SDS011;38515;53.160;6.990;2023-06-14T00:36:14;28.77;;;27.33;;
52620;SDS011;38515;53.160;6.990;2023-06-14T00:38:40;30.05;;;28.67;;
52620;SDS011;38515;53.160;6.990;2023-06-14T00:41:06;32.47;;;31.00;;
52620;SDS011;38515;53.160;6.990;2023-06-14T00:43:31;22.90;;;21.73;;
52620;SDS011;38515;53.160;6.990;2023-06-14T00:46:00;41.75;;;40.05;;
52620;SDS011;38515;53.160;6.990;2023-06-14T00:48:26;30.77;;;29.52;;
52620;SDS011;38515;53.160;6.990;2023-06-14T00:50:52;37.95;;;36.45;;
52620;SDS011;38515;53.160;6.990;2023-06-14T00:53:19;62.38;;;59.75;;
52620;SDS011;38515;53.160;6.990;2023-06-14T00:55:48;83.35;;;79.88;;
52620;SDS011;38515;53.160;6.990;2023-06-14T00:58:14;112.75;;;108.25;;
52620;SDS011;38515;53.160;6.990;2023-06-14T01:00:41;81.25;;;78.05;;
52620;SDS011;38515;53.160;6.990;2023-06-14T01:03:07;121.28;;;116.55;;
52620;SDS011;38515;53.160;6.990;2023-06-14T01:05:37;166.82;;;160.43;;
52620;SDS011;38515;53.160;6.990;2023-06-14T01:13:33;123.05;;;118.45;;
52620;SDS011;38515;53.160;6.990;2023-06-14T01:16:01;129.73;;;124.60;;
52620;SDS011;38515;53.160;6.990;2023-06-14T01:18:28;123.15;;;118.28;;
52620;SDS011;38515;53.160;6.990;2023-06-14T01:20:55;120.97;;;116.03;;
52620;SDS011;38515;53.160;6.990;2023-06-14T01:23:21;122.18;;;117.53;;
52620;SDS011;38515;53.160;6.990;2023-06-14T01:25:48;76.55;;;73.47;;
52620;SDS011;38515;53.160;6.990;2023-06-14T01:28:18;45.72;;;43.70;;
52620;SDS011;38515;53.160;6.990;2023-06-14T01:30:49;120.68;;;115.90;;
52620;SDS011;38515;53.160;6.990;2023-06-14T01:33:19;139.77;;;134.55;;
52620;SDS011;38515;53.160;6.990;2023-06-14T01:35:51;90.30;;;86.57;;
52620;SDS011;38515;53.160;6.990;2023-06-14T01:38:19;114.45;;;110.20;;
52620;SDS011;38515;53.160;6.990;2023-06-14T01:40:49;141.57;;;136.02;;
52620;SDS011;38515;53.160;6.990;2023-06-14T01:43:17;141.18;;;135.95;;
52620;SDS011;38515;53.160;6.990;2023-06-14T01:45:45;32.30;;;30.75;;
52620;SDS011;38515;53.160;6.990;2023-06-14T01:48:14;35.30;;;33.70;;
52620;SDS011;38515;53.160;6.990;2023-06-14T01:50:40;42.45;;;40.65;;
52620;SDS011;38515;53.160;6.990;2023-06-14T01:53:07;37.72;;;36.13;;
52620;SDS011;38515;53.160;6.990;2023-06-14T01:55:33;27.58;;;26.27;;
52620;SDS011;38515;53.160;6.990;2023-06-14T01:58:05;42.92;;;40.97;;
52620;SDS011;38515;53.160;6.990;2023-06-14T02:00:30;49.40;;;47.45;;
52620;SDS011;38515;53.160;6.990;2023-06-14T02:02:56;23.50;;;22.40;;
52620;SDS011;38515;53.160;6.990;2023-06-14T02:05:22;41.08;;;39.10;;
52620;SDS011;38515;53.160;6.990;2023-06-14T02:07:49;67.85;;;65.10;;
52620;SDS011;38515;53.160;6.990;2023-06-14T02:10:15;39.38;;;37.47;;
52620;SDS011;38515;53.160;6.990;2023-06-14T02:12:43;34.75;;;32.90;;
52620;SDS011;38515;53.160;6.990;2023-06-14T02:15:09;88.30;;;84.85;;
52620;SDS011;38515;53.160;6.990;2023-06-14T02:17:41;55.72;;;53.53;;
52620;SDS011;38515;53.160;6.990;2023-06-14T02:20:08;71.32;;;68.35;;
52620;SDS011;38515;53.160;6.990;2023-06-14T02:22:34;211.38;;;203.40;;
52620;SDS011;38515;53.160;6.990;2023-06-14T02:25:00;144.60;;;139.00;;
52620;SDS011;38515;53.160;6.990;2023-06-14T02:27:26;126.45;;;121.38;;
52620;SDS011;38515;53.160;6.990;2023-06-14T02:29:52;128.13;;;123.20;;
52620;SDS011;38515;53.160;6.990;2023-06-14T02:32:18;200.18;;;192.50;;
52620;SDS011;38515;53.160;6.990;2023-06-14T02:34:44;180.23;;;173.48;;
52620;SDS011;38515;53.160;6.990;2023-06-14T02:37:09;151.52;;;145.77;;
52620;SDS011;38515;53.160;6.990;2023-06-14T02:39:36;109.68;;;105.40;;
52620;SDS011;38515;53.160;6.990;2023-06-14T02:42:02;87.78;;;84.30;;
52620;SDS011;38515;53.160;6.990;2023-06-14T02:44:28;33.80;;;32.17;;
52620;SDS011;38515;53.160;6.990;2023-06-14T02:46:55;48.90;;;46.65;;
52620;SDS011;38515;53.160;6.990;2023-06-14T02:49:21;146.60;;;140.77;;
52620;SDS011;38515;53.160;6.990;2023-06-14T02:51:47;132.18;;;127.15;;
52620;SDS011;38515;53.160;6.990;2023-06-14T02:54:13;149.95;;;144.30;;
52620;SDS011;38515;53.160;6.990;2023-06-14T02:56:39;145.18;;;139.68;;
52620;SDS011;38515;53.160;6.990;2023-06-14T02:59:06;95.90;;;91.93;;
52620;SDS011;38515;53.160;6.990;2023-06-14T03:01:34;106.65;;;102.38;;
52620;SDS011;38515;53.160;6.990;2023-06-14T03:04:03;114.10;;;109.72;;
52620;SDS011;38515;53.160;6.990;2023-06-14T03:06:30;140.80;;;135.18;;
52620;SDS011;38515;53.160;6.990;2023-06-14T03:08:56;166.98;;;160.50;;
52620;SDS011;38515;53.160;6.990;2023-06-14T03:11:26;132.57;;;127.20;;
52620;SDS011;38515;53.160;6.990;2023-06-14T03:13:52;196.57;;;189.02;;
52620;SDS011;38515;53.160;6.990;2023-06-14T03:16:19;135.55;;;130.27;;
52620;SDS011;38515;53.160;6.990;2023-06-14T03:18:48;114.00;;;109.60;;
52620;SDS011;38515;53.160;6.990;2023-06-14T03:21:14;108.45;;;104.18;;
52620;SDS011;38515;53.160;6.990;2023-06-14T03:23:41;101.80;;;97.82;;
52620;SDS011;38515;53.160;6.990;2023-06-14T03:26:08;108.30;;;104.20;;
52620;SDS011;38515;53.160;6.990;2023-06-14T03:28:34;109.15;;;104.53;;
52620;SDS011;38515;53.160;6.990;2023-06-14T03:30:59;76.72;;;73.80;;
52620;SDS011;38515;53.160;6.990;2023-06-14T03:33:26;98.80;;;94.80;;
52620;SDS011;38515;53.160;6.990;2023-06-14T03:35:52;59.03;;;56.47;;
52620;SDS011;38515;53.160;6.990;2023-06-14T03:38:18;54.15;;;51.90;;
52620;SDS011;38515;53.160;6.990;2023-06-14T03:40:44;48.72;;;46.55;;
52620;SDS011;38515;53.160;6.990;2023-06-14T03:43:10;55.20;;;52.58;;
52620;SDS011;38515;53.160;6.990;2023-06-14T03:45:36;67.32;;;64.32;;
52620;SDS011;38515;53.160;6.990;2023-06-14T03:48:02;62.60;;;59.65;;
52620;SDS011;38515;53.160;6.990;2023-06-14T03:50:28;80.78;;;77.53;;
52620;SDS011;38515;53.160;6.990;2023-06-14T03:52:54;74.38;;;70.78;;
52620;SDS011;38515;53.160;6.990;2023-06-14T03:55:20;90.15;;;86.57;;
52620;SDS011;38515;53.160;6.990;2023-06-14T03:57:46;91.43;;;87.38;;
52620;SDS011;38515;53.160;6.990;2023-06-14T04:00:12;68.32;;;65.43;;
52620;SDS011;38515;53.160;6.990;2023-06-14T04:02:38;77.60;;;74.18;;
52620;SDS011;38515;53.160;6.990;2023-06-14T04:05:04;58.90;;;56.22;;
52620;SDS011;38515;53.160;6.990;2023-06-14T04:07:33;77.38;;;74.13;;
52620;SDS011;38515;53.160;6.990;2023-06-14T04:10:05;53.90;;;51.65;;
52620;SDS011;38515;53.160;6.990;2023-06-14T04:12:32;49.67;;;47.47;;
52620;SDS011;38515;53.160;6.990;2023-06-14T04:14:58;69.82;;;67.00;;
52620;SDS011;38515;53.160;6.990;2023-06-14T04:17:23;79.82;;;76.63;;
52620;SDS011;38515;53.160;6.990;2023-06-14T04:19:49;75.57;;;72.32;;
52620;SDS011;38515;53.160;6.990;2023-06-14T04:22:15;181.68;;;174.40;;
52620;SDS011;38515;53.160;6.990;2023-06-14T04:24:41;163.32;;;156.82;;
52620;SDS011;38515;53.160;6.990;2023-06-14T04:27:07;186.05;;;178.25;;
52620;SDS011;38515;53.160;6.990;2023-06-14T04:29:33;89.80;;;86.07;;
52620;SDS011;38515;53.160;6.990;2023-06-14T04:32:00;99.07;;;94.95;;
52620;SDS011;38515;53.160;6.990;2023-06-14T04:34:26;121.97;;;117.13;;
52620;SDS011;38515;53.160;6.990;2023-06-14T04:36:59;101.88;;;97.80;;
52620;SDS011;38515;53.160;6.990;2023-06-14T04:39:26;107.50;;;103.22;;
52620;SDS011;38515;53.160;6.990;2023-06-14T04:41:53;128.05;;;122.63;;
52620;SDS011;38515;53.160;6.990;2023-06-14T04:44:22;151.32;;;145.43;;
52620;SDS011;38515;53.160;6.990;2023-06-14T04:46:58;144.95;;;139.25;;
52620;SDS011;38515;53.160;6.990;2023-06-14T04:49:24;127.18;;;121.95;;
52620;SDS011;38515;53.160;6.990;2023-06-14T04:51:52;136.65;;;131.13;;
52620;SDS011;38515;53.160;6.990;2023-06-14T04:54:24;121.43;;;116.57;;
52620;SDS011;38515;53.160;6.990;2023-06-14T04:56:50;71.10;;;67.78;;
52620;SDS011;38515;53.160;6.990;2023-06-14T04:59:18;45.40;;;43.10;;
52620;SDS011;38515;53.160;6.990;2023-06-14T05:01:44;37.53;;;35.80;;
52620;SDS011;38515;53.160;6.990;2023-06-14T05:04:14;46.42;;;44.38;;
52620;SDS011;38515;53.160;6.990;2023-06-14T05:06:41;59.80;;;57.08;;
52620;SDS011;38515;53.160;6.990;2023-06-14T05:09:10;64.38;;;61.40;;
52620;SDS011;38515;53.160;6.990;2023-06-14T05:11:40;72.72;;;69.60;;
52620;SDS011;38515;53.160;6.990;2023-06-14T05:14:10;56.38;;;53.90;;
52620;SDS011;38515;53.160;6.990;2023-06-14T05:16:36;90.20;;;86.40;;
52620;SDS011;38515;53.160;6.990;2023-06-14T05:19:03;72.07;;;69.00;;
52620;SDS011;38515;53.160;6.990;2023-06-14T05:21:31;65.07;;;62.35;;
52620;SDS011;38515;53.160;6.990;2023-06-14T05:23:59;90.60;;;87.05;;
52620;SDS011;38515;53.160;6.990;2023-06-14T05:26:26;118.05;;;113.40;;
52620;SDS011;38515;53.160;6.990;2023-06-14T05:28:55;128.07;;;122.85;;
52620;SDS011;38515;53.160;6.990;2023-06-14T05:31:22;147.55;;;141.93;;
52620;SDS011;38515;53.160;6.990;2023-06-14T05:33:49;120.53;;;115.78;;
52620;SDS011;38515;53.160;6.990;2023-06-14T05:36:16;19.27;;;17.98;;
52620;SDS011;38515;53.160;6.990;2023-06-14T05:38:42;14.95;;;13.90;;
52620;SDS011;38515;53.160;6.990;2023-06-14T05:41:07;25.50;;;24.05;;
52620;SDS011;38515;53.160;6.990;2023-06-14T05:43:33;25.08;;;23.73;;
52620;SDS011;38515;53.160;6.990;2023-06-14T05:45:59;48.53;;;46.35;;
52620;SDS011;38515;53.160;6.990;2023-06-14T05:48:25;49.30;;;47.13;;
52620;SDS011;38515;53.160;6.990;2023-06-14T05:50:51;34.28;;;32.25;;
52620;SDS011;38515;53.160;6.990;2023-06-14T05:53:17;31.17;;;29.50;;
52620;SDS011;38515;53.160;6.990;2023-06-14T05:55:43;29.23;;;27.45;;
52620;SDS011;38515;53.160;6.990;2023-06-14T05:58:09;23.60;;;22.10;;
52620;SDS011;38515;53.160;6.990;2023-06-14T06:00:36;28.40;;;26.98;;
52620;SDS011;38515;53.160;6.990;2023-06-14T06:03:02;27.08;;;25.63;;
52620;SDS011;38515;53.160;6.990;2023-06-14T06:05:27;21.30;;;19.80;;
52620;SDS011;38515;53.160;6.990;2023-06-14T06:07:53;23.67;;;22.42;;
52620;SDS011;38515;53.160;6.990;2023-06-14T06:10:19;16.58;;;15.63;;
52620;SDS011;38515;53.160;6.990;2023-06-14T06:12:45;23.38;;;22.17;;
52620;SDS011;38515;53.160;6.990;2023-06-14T06:15:13;24.45;;;23.10;;
52620;SDS011;38515;53.160;6.990;2023-06-14T06:17:39;21.95;;;20.80;;
52620;SDS011;38515;53.160;6.990;2023-06-14T06:20:06;12.10;;;11.07;;
52620;SDS011;38515;53.160;6.990;2023-06-14T06:22:33;12.40;;;11.65;;
52620;SDS011;38515;53.160;6.990;2023-06-14T06:24:59;21.30;;;19.95;;
52620;SDS011;38515;53.160;6.990;2023-06-14T06:27:25;11.75;;;10.77;;
52620;SDS011;38515;53.160;6.990;2023-06-14T06:29:51;15.68;;;14.10;;
52620;SDS011;38515;53.160;6.990;2023-06-14T06:32:18;11.77;;;10.73;;
52620;SDS011;38515;53.160;6.990;2023-06-14T06:34:45;9.52;;;8.82;;
52620;SDS011;38515;53.160;6.990;2023-06-14T06:37:11;11.20;;;10.07;;
52620;SDS011;38515;53.160;6.990;2023-06-14T06:39:37;12.25;;;11.45;;
52620;SDS011;38515;53.160;6.990;2023-06-14T06:42:03;12.35;;;11.25;;
52620;SDS011;38515;53.160;6.990;2023-06-14T06:44:29;12.95;;;11.93;;
52620;SDS011;38515;53.160;6.990;2023-06-14T06:46:55;13.02;;;11.82;;
52620;SDS011;38515;53.160;6.990;2023-06-14T06:49:21;11.77;;;10.88;;
52620;SDS011;38515;53.160;6.990;2023-06-14T06:51:59;13.20;;;12.35;;
52620;SDS011;38515;53.160;6.990;2023-06-14T06:54:27;10.60;;;9.77;;
52620;SDS011;38515;53.160;6.990;2023-06-14T06:56:53;12.70;;;11.90;;
52620;SDS011;38515;53.160;6.990;2023-06-14T06:59:19;12.48;;;11.45;;
52620;SDS011;38515;53.160;6.990;2023-06-14T07:01:45;11.10;;;9.75;;
52620;SDS011;38515;53.160;6.990;2023-06-14T07:04:11;10.73;;;9.93;;
52620;SDS011;38515;53.160;6.990;2023-06-14T07:06:37;11.20;;;10.38;;
52620;SDS011;38515;53.160;6.990;2023-06-14T07:09:03;12.15;;;11.20;;
52620;SDS011;38515;53.160;6.990;2023-06-14T07:11:32;11.43;;;10.60;;
52620;SDS011;38515;53.160;6.990;2023-06-14T07:13:58;14.77;;;13.98;;
52620;SDS011;38515;53.160;6.990;2023-06-14T07:16:24;14.30;;;13.50;;
52620;SDS011;38515;53.160;6.990;2023-06-14T07:18:51;14.73;;;13.82;;
52620;SDS011;38515;53.160;6.990;2023-06-14T07:24:14;17.67;;;16.67;;
52620;SDS011;38515;53.160;6.990;2023-06-14T07:26:40;17.85;;;16.73;;
52620;SDS011;38515;53.160;6.990;2023-06-14T07:29:06;18.17;;;16.65;;
52620;SDS011;38515;53.160;6.990;2023-06-14T07:31:32;15.82;;;14.82;;
52620;SDS011;38515;53.160;6.990;2023-06-14T07:33:58;13.35;;;12.30;;
52620;SDS011;38515;53.160;6.990;2023-06-14T07:36:23;14.85;;;13.75;;
52620;SDS011;38515;53.160;6.990;2023-06-14T07:38:49;12.68;;;11.05;;
52620;SDS011;38515;53.160;6.990;2023-06-14T07:41:16;10.10;;;9.40;;
52620;SDS011;38515;53.160;6.990;2023-06-14T07:43:42;12.15;;;11.45;;
52620;SDS011;38515;53.160;6.990;2023-06-14T07:46:08;12.85;;;12.10;;
52620;SDS011;38515;53.160;6.990;2023-06-14T07:48:34;16.38;;;15.32;;
52620;SDS011;38515;53.160;6.990;2023-06-14T07:51:00;11.50;;;10.70;;
52620;SDS011;38515;53.160;6.990;2023-06-14T07:53:26;13.32;;;9.25;;
52620;SDS011;38515;53.160;6.990;2023-06-14T07:55:52;10.50;;;9.77;;
52620;SDS011;38515;53.160;6.990;2023-06-14T07:58:18;10.82;;;10.02;;
52620;SDS011;38515;53.160;6.990;2023-06-14T08:00:44;10.98;;;10.02;;
52620;SDS011;38515;53.160;6.990;2023-06-14T08:03:11;12.45;;;11.45;;
52620;SDS011;38515;53.160;6.990;2023-06-14T08:05:39;11.80;;;11.00;;
52620;SDS011;38515;53.160;6.990;2023-06-14T08:08:05;10.88;;;10.23;;
52620;SDS011;38515;53.160;6.990;2023-06-14T08:10:31;11.70;;;10.73;;
52620;SDS011;38515;53.160;6.990;2023-06-14T08:12:57;11.63;;;10.50;;
52620;SDS011;38515;53.160;6.990;2023-06-14T08:15:23;10.40;;;9.80;;
52620;SDS011;38515;53.160;6.990;2023-06-14T08:17:48;9.93;;;9.23;;
52620;SDS011;38515;53.160;6.990;2023-06-14T08:20:15;11.50;;;10.48;;
52620;SDS011;38515;53.160;6.990;2023-06-14T08:22:42;12.50;;;11.60;;
52620;SDS011;38515;53.160;6.990;2023-06-14T08:25:08;11.43;;;10.02;;
52620;SDS011;38515;53.160;6.990;2023-06-14T08:27:34;16.65;;;13.27;;
52620;SDS011;38515;53.160;6.990;2023-06-14T08:30:01;14.70;;;11.30;;
52620;SDS011;38515;53.160;6.990;2023-06-14T08:32:28;14.70;;;13.52;;
52620;SDS011;38515;53.160;6.990;2023-06-14T08:34:54;11.50;;;10.73;;
52620;SDS011;38515;53.160;6.990;2023-06-14T08:37:20;11.75;;;10.68;;
52620;SDS011;38515;53.160;6.990;2023-06-14T08:39:46;10.40;;;9.70;;
52620;SDS011;38515;53.160;6.990;2023-06-14T08:42:12;11.05;;;9.82;;
52620;SDS011;38515;53.160;6.990;2023-06-14T08:44:40;11.65;;;10.60;;
52620;SDS011;38515;53.160;6.990;2023-06-14T08:47:06;10.35;;;9.65;;
52620;SDS011;38515;53.160;6.990;2023-06-14T08:49:35;12.32;;;9.35;;
52620;SDS011;38515;53.160;6.990;2023-06-14T08:52:03;10.20;;;9.60;;
52620;SDS011;38515;53.160;6.990;2023-06-14T08:54:33;10.80;;;9.73;;
52620;SDS011;38515;53.160;6.990;2023-06-14T08:57:02;9.70;;;8.90;;
52620;SDS011;38515;53.160;6.990;2023-06-14T08:59:32;9.80;;;9.02;;
52620;SDS011;38515;53.160;6.990;2023-06-14T09:02:04;10.63;;;9.82;;
52620;SDS011;38515;53.160;6.990;2023-06-14T09:04:31;14.52;;;10.05;;
52620;SDS011;38515;53.160;6.990;2023-06-14T09:06:58;10.52;;;9.63;;
52620;SDS011;38515;53.160;6.990;2023-06-14T09:09:24;9.13;;;8.63;;
52620;SDS011;38515;53.160;6.990;2023-06-14T09:11:51;10.18;;;9.27;;
52620;SDS011;38515;53.160;6.990;2023-06-14T09:14:21;10.90;;;10.13;;
52620;SDS011;38515;53.160;6.990;2023-06-14T09:16:52;10.82;;;9.77;;
52620;SDS011;38515;53.160;6.990;2023-06-14T09:19:21;10.50;;;9.73;;
52620;SDS011;38515;53.160;6.990;2023-06-14T09:21:50;11.02;;;10.02;;
52620;SDS011;38515;53.160;6.990;2023-06-14T09:24:18;9.57;;;8.98;;
52620;SDS011;38515;53.160;6.990;2023-06-14T09:26:48;10.80;;;9.68;;
52620;SDS011;38515;53.160;6.990;2023-06-14T09:29:15;10.77;;;9.90;;
52620;SDS011;38515;53.160;6.990;2023-06-14T09:31:42;11.10;;;10.15;;
52620;SDS011;38515;53.160;6.990;2023-06-14T09:34:10;11.98;;;10.55;;
52620;SDS011;38515;53.160;6.990;2023-06-14T09:36:36;11.02;;;9.88;;
52620;SDS011;38515;53.160;6.990;2023-06-14T09:39:05;10.10;;;9.50;;
52620;SDS011;38515;53.160;6.990;2023-06-14T09:41:35;10.88;;;9.88;;
52620;SDS011;38515;53.160;6.990;2023-06-14T09:44:02;10.13;;;9.20;;
52620;SDS011;38515;53.160;6.990;2023-06-14T09:46:31;11.55;;;9.55;;
52620;SDS011;38515;53.160;6.990;2023-06-14T09:49:00;11.25;;;10.15;;
52620;SDS011;38515;53.160;6.990;2023-06-14T09:51:27;10.52;;;9.73;;
52620;SDS011;38515;53.160;6.990;2023-06-14T09:54:01;10.82;;;10.02;;
52620;SDS011;38515;53.160;6.990;2023-06-14T09:56:41;13.93;;;9.77;;
52620;SDS011;38515;53.160;6.990;2023-06-14T09:59:09;10.10;;;9.18;;
52620;SDS011;38515;53.160;6.990;2023-06-14T10:01:46;10.27;;;9.38;;
52620;SDS011;38515;53.160;6.990;2023-06-14T10:04:14;9.07;;;8.45;;
52620;SDS011;38515;53.160;6.990;2023-06-14T10:06:44;11.30;;;9.20;;
52620;SDS011;38515;53.160;6.990;2023-06-14T10:09:11;9.60;;;8.27;;
52620;SDS011;38515;53.160;6.990;2023-06-14T10:11:37;9.45;;;8.25;;
52620;SDS011;38515;53.160;6.990;2023-06-14T10:14:09;9.25;;;7.97;;
52620;SDS011;38515;53.160;6.990;2023-06-14T10:19:23;9.57;;;8.88;;
52620;SDS011;38515;53.160;6.990;2023-06-14T10:24:40;8.98;;;8.20;;
52620;SDS011;38515;53.160;6.990;2023-06-14T10:27:07;9.95;;;7.88;;
52620;SDS011;38515;53.160;6.990;2023-06-14T10:32:35;8.93;;;8.40;;
52620;SDS011;38515;53.160;6.990;2023-06-14T10:35:21;8.25;;;7.75;;
52620;SDS011;38515;53.160;6.990;2023-06-14T10:37:47;7.72;;;7.32;;
52620;SDS011;38515;53.160;6.990;2023-06-14T10:40:29;30.85;;;11.38;;
52620;SDS011;38515;53.160;6.990;2023-06-14T10:42:56;10.77;;;8.35;;
52620;SDS011;38515;53.160;6.990;2023-06-14T10:45:22;8.43;;;7.85;;
52620;SDS011;38515;53.160;6.990;2023-06-14T10:47:48;9.13;;;8.52;;
52620;SDS011;38515;53.160;6.990;2023-06-14T10:50:22;9.02;;;8.30;;
52620;SDS011;38515;53.160;6.990;2023-06-14T10:52:54;8.77;;;8.05;;
52620;SDS011;38515;53.160;6.990;2023-06-14T10:55:20;9.70;;;8.85;;
52620;SDS011;38515;53.160;6.990;2023-06-14T10:57:48;10.00;;;9.13;;
52620;SDS011;38515;53.160;6.990;2023-06-14T11:00:21;10.20;;;8.50;;
52620;SDS011;38515;53.160;6.990;2023-06-14T11:11:18;10.05;;;9.45;;
52620;SDS011;38515;53.160;6.990;2023-06-14T11:13:54;10.88;;;9.93;;
52620;SDS011;38515;53.160;6.990;2023-06-14T11:16:20;10.93;;;10.13;;
52620;SDS011;38515;53.160;6.990;2023-06-14T11:18:53;11.13;;;10.07;;
52620;SDS011;38515;53.160;6.990;2023-06-14T11:21:19;10.32;;;9.48;;
52620;SDS011;38515;53.160;6.990;2023-06-14T11:23:49;11.93;;;10.93;;
52620;SDS011;38515;53.160;6.990;2023-06-14T11:26:29;11.88;;;10.85;;
52620;SDS011;38515;53.160;6.990;2023-06-14T11:28:58;11.93;;;10.85;;
52620;SDS011;38515;53.160;6.990;2023-06-14T11:31:25;11.35;;;10.75;;
52620;SDS011;38515;53.160;6.990;2023-06-14T11:33:59;11.13;;;10.20;;
52620;SDS011;38515;53.160;6.990;2023-06-14T11:36:29;10.95;;;9.68;;
52620;SDS011;38515;53.160;6.990;2023-06-14T11:39:03;10.48;;;9.20;;
52620;SDS011;38515;53.160;6.990;2023-06-14T11:41:44;11.60;;;10.63;;
52620;SDS011;38515;53.160;6.990;2023-06-14T11:44:10;11.18;;;10.57;;
52620;SDS011;38515;53.160;6.990;2023-06-14T11:46:41;10.60;;;9.65;;
52620;SDS011;38515;53.160;6.990;2023-06-14T11:49:10;11.10;;;10.30;;
52620;SDS011;38515;53.160;6.990;2023-06-14T11:51:37;11.50;;;10.48;;
52620;SDS011;38515;53.160;6.990;2023-06-14T11:54:03;11.02;;;10.43;;
52620;SDS011;38515;53.160;6.990;2023-06-14T11:56:30;12.95;;;11.15;;
52620;SDS011;38515;53.160;6.990;2023-06-14T11:58:57;11.65;;;10.65;;
52620;SDS011;38515;53.160;6.990;2023-06-14T12:01:23;11.52;;;10.50;;
52620;SDS011;38515;53.160;6.990;2023-06-14T12:03:50;13.98;;;13.13;;
52620;SDS011;38515;53.160;6.990;2023-06-14T12:06:25;13.80;;;12.10;;
52620;SDS011;38515;53.160;6.990;2023-06-14T12:08:58;11.05;;;9.95;;
52620;SDS011;38515;53.160;6.990;2023-06-14T12:11:27;11.55;;;10.85;;
52620;SDS011;38515;53.160;6.990;2023-06-14T12:13:57;11.40;;;10.50;;
52620;SDS011;38515;53.160;6.990;2023-06-14T12:16:29;10.73;;;10.05;;
52620;SDS011;38515;53.160;6.990;2023-06-14T12:18:56;12.95;;;11.30;;
52620;SDS011;38515;53.160;6.990;2023-06-14T12:21:26;10.68;;;10.07;;
52620;SDS011;38515;53.160;6.990;2023-06-14T12:23:55;12.02;;;11.00;;
52620;SDS011;38515;53.160;6.990;2023-06-14T12:26:21;13.15;;;11.48;;
52620;SDS011;38515;53.160;6.990;2023-06-14T12:28:51;14.40;;;11.43;;
52620;SDS011;38515;53.160;6.990;2023-06-14T12:31:18;12.15;;;10.98;;
52620;SDS011;38515;53.160;6.990;2023-06-14T12:33:44;12.40;;;11.15;;
52620;SDS011;38515;53.160;6.990;2023-06-14T12:36:14;13.50;;;12.27;;
52620;SDS011;38515;53.160;6.990;2023-06-14T12:38:40;10.93;;;10.05;;
52620;SDS011;38515;53.160;6.990;2023-06-14T12:41:06;13.25;;;12.25;;
52620;SDS011;38515;53.160;6.990;2023-06-14T12:43:32;10.85;;;10.15;;
52620;SDS011;38515;53.160;6.990;2023-06-14T12:45:59;12.85;;;11.70;;
52620;SDS011;38515;53.160;6.990;2023-06-14T12:48:25;11.77;;;10.98;;
52620;SDS011;38515;53.160;6.990;2023-06-14T12:50:56;12.75;;;11.45;;
52620;SDS011;38515;53.160;6.990;2023-06-14T12:53:23;10.65;;;10.15;;
52620;SDS011;38515;53.160;6.990;2023-06-14T12:55:49;12.38;;;11.68;;
52620;SDS011;38515;53.160;6.990;2023-06-14T12:58:15;12.00;;;11.20;;
52620;SDS011;38515;53.160;6.990;2023-06-14T13:00:45;12.90;;;12.10;;
52620;SDS011;38515;53.160;6.990;2023-06-14T13:03:12;12.82;;;12.13;;
52620;SDS011;38515;53.160;6.990;2023-06-14T13:05:38;10.88;;;10.27;;
52620;SDS011;38515;53.160;6.990;2023-06-14T13:08:06;11.23;;;10.32;;
52620;SDS011;38515;53.160;6.990;2023-06-14T13:10:35;11.38;;;10.50;;
52620;SDS011;38515;53.160;6.990;2023-06-14T13:13:01;12.07;;;10.98;;
52620;SDS011;38515;53.160;6.990;2023-06-14T13:15:27;11.02;;;10.38;;
52620;SDS011;38515;53.160;6.990;2023-06-14T13:17:53;12.32;;;11.32;;
52620;SDS011;38515;53.160;6.990;2023-06-14T13:20:20;10.93;;;10.32;;
52620;SDS011;38515;53.160;6.990;2023-06-14T13:22:46;11.63;;;10.73;;
52620;SDS011;38515;53.160;6.990;2023-06-14T13:25:12;11.18;;;10.60;;
52620;SDS011;38515;53.160;6.990;2023-06-14T13:27:38;12.10;;;11.00;;
52620;SDS011;38515;53.160;6.990;2023-06-14T13:30:04;10.98;;;10.35;;
52620;SDS011;38515;53.160;6.990;2023-06-14T13:32:30;10.57;;;10.07;;
52620;SDS011;38515;53.160;6.990;2023-06-14T13:34:57;12.43;;;11.82;;
52620;SDS011;38515;53.160;6.990;2023-06-14T13:37:23;12.45;;;9.98;;
52620;SDS011;38515;53.160;6.990;2023-06-14T13:39:52;11.35;;;10.55;;
52620;SDS011;38515;53.160;6.990;2023-06-14T13:42:18;12.70;;;11.93;;
52620;SDS011;38515;53.160;6.990;2023-06-14T13:44:44;13.55;;;11.20;;
52620;SDS011;38515;53.160;6.990;2023-06-14T13:47:10;11.68;;;10.98;;
52620;SDS011;38515;53.160;6.990;2023-06-14T13:49:35;13.50;;;12.35;;
52620;SDS011;38515;53.160;6.990;2023-06-14T13:52:02;13.07;;;11.85;;
52620;SDS011;38515;53.160;6.990;2023-06-14T13:54:28;12.90;;;12.20;;
52620;SDS011;38515;53.160;6.990;2023-06-14T13:56:54;11.20;;;10.35;;
52620;SDS011;38515;53.160;6.990;2023-06-14T13:59:19;13.73;;;12.52;;
52620;SDS011;38515;53.160;6.990;2023-06-14T14:01:49;12.48;;;11.88;;
52620;SDS011;38515;53.160;6.990;2023-06-14T14:04:15;13.82;;;12.48;;
52620;SDS011;38515;53.160;6.990;2023-06-14T14:06:41;11.52;;;10.63;;
52620;SDS011;38515;53.160;6.990;2023-06-14T14:09:07;14.38;;;13.13;;
52620;SDS011;38515;53.160;6.990;2023-06-14T14:11:34;12.23;;;11.52;;
52620;SDS011;38515;53.160;6.990;2023-06-14T14:14:00;11.90;;;10.95;;
52620;SDS011;38515;53.160;6.990;2023-06-14T14:16:26;11.82;;;10.88;;
52620;SDS011;38515;53.160;6.990;2023-06-14T14:18:52;11.05;;;10.45;;
52620;SDS011;38515;53.160;6.990;2023-06-14T14:21:18;11.65;;;10.80;;
52620;SDS011;38515;53.160;6.990;2023-06-14T14:23:44;14.02;;;12.70;;
52620;SDS011;38515;53.160;6.990;2023-06-14T14:26:10;12.52;;;11.68;;
52620;SDS011;38515;53.160;6.990;2023-06-14T14:28:36;13.43;;;12.32;;
52620;SDS011;38515;53.160;6.990;2023-06-14T14:31:02;12.95;;;12.35;;
52620;SDS011;38515;53.160;6.990;2023-06-14T14:33:28;12.63;;;11.88;;
52620;SDS011;38515;53.160;6.990;2023-06-14T14:35:54;11.35;;;10.65;;
52620;SDS011;38515;53.160;6.990;2023-06-14T14:38:20;10.88;;;10.18;;
52620;SDS011;38515;53.160;6.990;2023-06-14T14:40:47;12.40;;;11.50;;
52620;SDS011;38515;53.160;6.990;2023-06-14T14:43:13;12.50;;;11.60;;
52620;SDS011;38515;53.160;6.990;2023-06-14T14:45:41;13.05;;;12.35;;
52620;SDS011;38515;53.160;6.990;2023-06-14T14:48:08;12.40;;;11.70;;